sensor_id;sensor_type;location;lat;lon;timestamp;temperature;humidity
12015;DHT22;6066;48.138;16.402;2023-09-19T00:01:00;20.30;99.90
12015;DHT22;6066;48.138;16.402;2023-09-19T00:03:28;20.30;99.90
12015;DHT22;6066;48.138;16.402;2023-09-19T00:05:59;20.10;99.90
12015;DHT22;6066;48.138;16.402;2023-09-19T00:08:25;20.00;99.90
12015;DHT22;6066;48.138;16.402;2023-09-19T00:10:53;19.90;99.90
12015;DHT22;6066;48.138;16.402;2023-09-19T00:13:20;19.80;99.90
12015;DHT22;6066;48.138;16.402;2023-09-19T00:15:47;19.70;99.90
12015;DHT22;6066;48.138;16.402;2023-09-19T00:18:15;19.70;99.90
12015;DHT22;6066;48.138;16.402;2023-09-19T00:20:42;19.60;99.90
12015;DHT22;6066;48.138;16.402;2023-09-19T00:23:14;19.60;99.90
12015;DHT22;6066;48.138;16.402;2023-09-19T00:25:41;19.50;99.90
12015;DHT22;6066;48.138;16.402;2023-09-19T00:28:07;19.50;99.90
12015;DHT22;6066;48.138;16.402;2023-09-19T00:30:35;19.40;99.90
12015;DHT22;6066;48.138;16.402;2023-09-19T00:33:03;19.20;99.90
12015;DHT22;6066;48.138;16.402;2023-09-19T00:35:33;19.10;99.90
12015;DHT22;6066;48.138;16.402;2023-09-19T00:37:59;18.80;99.90
12015;DHT22;6066;48.138;16.402;2023-09-19T00:40:27;18.70;99.90
12015;DHT22;6066;48.138;16.402;2023-09-19T00:42:56;18.50;99.90
12015;DHT22;6066;48.138;16.402;2023-09-19T00:45:24;18.40;99.90
12015;DHT22;6066;48.138;16.402;2023-09-19T00:47:51;18.30;99.90
12015;DHT22;6066;48.138;16.402;2023-09-19T00:50:18;18.20;99.90
12015;DHT22;6066;48.138;16.402;2023-09-19T00:52:46;18.20;99.90
12015;DHT22;6066;48.138;16.402;2023-09-19T00:55:15;18.10;99.90
12015;DHT22;6066;48.138;16.402;2023-09-19T00:57:46;18.10;99.90
12015;DHT22;6066;48.138;16.402;2023-09-19T01:00:15;18.00;99.90
12015;DHT22;6066;48.138;16.402;2023-09-19T01:02:43;18.00;99.90
12015;DHT22;6066;48.138;16.402;2023-09-19T01:05:10;18.00;99.90
12015;DHT22;6066;48.138;16.402;2023-09-19T01:07:37;18.00;99.90
12015;DHT22;6066;48.138;16.402;2023-09-19T01:10:06;18.10;99.90
12015;DHT22;6066;48.138;16.402;2023-09-19T01:12:37;18.10;99.90
12015;DHT22;6066;48.138;16.402;2023-09-19T01:15:10;18.10;99.90
12015;DHT22;6066;48.138;16.402;2023-09-19T01:17:40;18.10;99.90
12015;DHT22;6066;48.138;16.402;2023-09-19T01:20:21;18.10;99.90
12015;DHT22;6066;48.138;16.402;2023-09-19T01:22:56;18.10;99.90
12015;DHT22;6066;48.138;16.402;2023-09-19T01:25:42;18.10;99.90
12015;DHT22;6066;48.138;16.402;2023-09-19T01:30:57;18.10;99.90
12015;DHT22;6066;48.138;16.402;2023-09-19T01:33:25;18.10;99.90
12015;DHT22;6066;48.138;16.402;2023-09-19T01:35:52;18.10;99.90
12015;DHT22;6066;48.138;16.402;2023-09-19T01:38:23;18.00;99.90
12015;DHT22;6066;48.138;16.402;2023-09-19T01:40:55;17.80;99.90
12015;DHT22;6066;48.138;16.402;2023-09-19T01:43:25;17.70;99.90
12015;DHT22;6066;48.138;16.402;2023-09-19T01:45:55;17.60;99.90
12015;DHT22;6066;48.138;16.402;2023-09-19T01:48:28;17.50;99.90
12015;DHT22;6066;48.138;16.402;2023-09-19T01:50:59;17.30;99.90
12015;DHT22;6066;48.138;16.402;2023-09-19T01:53:27;17.20;99.90
12015;DHT22;6066;48.138;16.402;2023-09-19T01:55:55;17.10;99.90
12015;DHT22;6066;48.138;16.402;2023-09-19T01:58:25;17.00;99.90
12015;DHT22;6066;48.138;16.402;2023-09-19T02:00:54;16.90;99.90
12015;DHT22;6066;48.138;16.402;2023-09-19T02:03:21;16.80;99.90
12015;DHT22;6066;48.138;16.402;2023-09-19T02:05:50;16.80;99.90
12015;DHT22;6066;48.138;16.402;2023-09-19T02:08:19;16.60;99.90
12015;DHT22;6066;48.138;16.402;2023-09-19T02:10:46;16.50;99.90
12015;DHT22;6066;48.138;16.402;2023-09-19T02:13:15;16.40;99.90
12015;DHT22;6066;48.138;16.402;2023-09-19T02:15:42;16.30;99.90
12015;DHT22;6066;48.138;16.402;2023-09-19T02:18:09;16.30;99.90
12015;DHT22;6066;48.138;16.402;2023-09-19T02:20:37;16.30;99.90
12015;DHT22;6066;48.138;16.402;2023-09-19T02:23:05;16.30;99.90
12015;DHT22;6066;48.138;16.402;2023-09-19T02:25:33;16.20;99.90
12015;DHT22;6066;48.138;16.402;2023-09-19T02:28:00;16.20;99.90
12015;DHT22;6066;48.138;16.402;2023-09-19T02:30:28;16.20;99.90
12015;DHT22;6066;48.138;16.402;2023-09-19T02:32:55;16.20;99.90
12015;DHT22;6066;48.138;16.402;2023-09-19T02:35:22;16.30;99.90
12015;DHT22;6066;48.138;16.402;2023-09-19T02:37:51;16.30;99.90
12015;DHT22;6066;48.138;16.402;2023-09-19T02:40:19;16.30;99.90
12015;DHT22;6066;48.138;16.402;2023-09-19T02:42:47;16.40;99.90
12015;DHT22;6066;48.138;16.402;2023-09-19T02:45:15;16.40;99.90
12015;DHT22;6066;48.138;16.402;2023-09-19T02:47:42;16.40;99.90
12015;DHT22;6066;48.138;16.402;2023-09-19T02:50:09;16.50;99.90
12015;DHT22;6066;48.138;16.402;2023-09-19T02:52:37;16.40;99.90
12015;DHT22;6066;48.138;16.402;2023-09-19T02:55:03;16.40;99.90
12015;DHT22;6066;48.138;16.402;2023-09-19T02:57:34;16.40;99.90
12015;DHT22;6066;48.138;16.402;2023-09-19T03:00:06;16.50;99.90
12015;DHT22;6066;48.138;16.402;2023-09-19T03:02:33;16.60;99.90
12015;DHT22;6066;48.138;16.402;2023-09-19T03:05:00;16.60;99.90
12015;DHT22;6066;48.138;16.402;2023-09-19T03:07:28;16.60;99.90
12015;DHT22;6066;48.138;16.402;2023-09-19T03:09:56;16.70;99.90
12015;DHT22;6066;48.138;16.402;2023-09-19T03:12:23;16.60;99.90
12015;DHT22;6066;48.138;16.402;2023-09-19T03:14:51;16.50;99.90
12015;DHT22;6066;48.138;16.402;2023-09-19T03:17:17;16.50;99.90
12015;DHT22;6066;48.138;16.402;2023-09-19T03:19:45;16.50;99.90
12015;DHT22;6066;48.138;16.402;2023-09-19T03:22:12;16.50;99.90
12015;DHT22;6066;48.138;16.402;2023-09-19T03:24:39;16.50;99.90
12015;DHT22;6066;48.138;16.402;2023-09-19T03:27:08;16.50;99.90
12015;DHT22;6066;48.138;16.402;2023-09-19T03:29:35;16.50;99.90
12015;DHT22;6066;48.138;16.402;2023-09-19T03:32:04;16.60;99.90
12015;DHT22;6066;48.138;16.402;2023-09-19T03:34:31;16.60;99.90
12015;DHT22;6066;48.138;16.402;2023-09-19T03:36:59;16.50;99.90
12015;DHT22;6066;48.138;16.402;2023-09-19T03:39:26;16.50;99.90
12015;DHT22;6066;48.138;16.402;2023-09-19T03:41:52;16.50;99.90
12015;DHT22;6066;48.138;16.402;2023-09-19T03:44:19;16.50;99.90
12015;DHT22;6066;48.138;16.402;2023-09-19T03:46:46;16.50;99.90
12015;DHT22;6066;48.138;16.402;2023-09-19T03:49:14;16.50;99.90
12015;DHT22;6066;48.138;16.402;2023-09-19T03:51:41;16.50;99.90
12015;DHT22;6066;48.138;16.402;2023-09-19T03:54:07;16.50;99.90
12015;DHT22;6066;48.138;16.402;2023-09-19T03:56:34;16.50;99.90
12015;DHT22;6066;48.138;16.402;2023-09-19T03:59:01;16.50;99.90
12015;DHT22;6066;48.138;16.402;2023-09-19T04:01:28;16.50;99.90
12015;DHT22;6066;48.138;16.402;2023-09-19T04:03:57;16.50;99.90
12015;DHT22;6066;48.138;16.402;2023-09-19T04:06:25;16.50;99.90
12015;DHT22;6066;48.138;16.402;2023-09-19T04:08:52;16.50;99.90
12015;DHT22;6066;48.138;16.402;2023-09-19T04:11:19;16.50;99.90
12015;DHT22;6066;48.138;16.402;2023-09-19T04:13:46;16.60;99.90
12015;DHT22;6066;48.138;16.402;2023-09-19T04:16:14;16.60;99.90
12015;DHT22;6066;48.138;16.402;2023-09-19T04:18:41;16.60;99.90
12015;DHT22;6066;48.138;16.402;2023-09-19T04:21:07;16.60;99.90
12015;DHT22;6066;48.138;16.402;2023-09-19T04:23:36;16.70;99.90
12015;DHT22;6066;48.138;16.402;2023-09-19T04:26:02;16.70;99.90
12015;DHT22;6066;48.138;16.402;2023-09-19T04:28:30;16.70;99.90
12015;DHT22;6066;48.138;16.402;2023-09-19T04:30:57;16.70;99.90
12015;DHT22;6066;48.138;16.402;2023-09-19T04:33:24;16.70;99.90
12015;DHT22;6066;48.138;16.402;2023-09-19T04:35:52;16.70;99.90
12015;DHT22;6066;48.138;16.402;2023-09-19T04:38:19;16.70;99.90
12015;DHT22;6066;48.138;16.402;2023-09-19T04:40:47;16.70;99.90
12015;DHT22;6066;48.138;16.402;2023-09-19T04:43:14;16.70;99.90
12015;DHT22;6066;48.138;16.402;2023-09-19T04:45:42;16.70;99.90
12015;DHT22;6066;48.138;16.402;2023-09-19T04:48:09;16.70;99.90
12015;DHT22;6066;48.138;16.402;2023-09-19T04:50:36;16.80;99.90
12015;DHT22;6066;48.138;16.402;2023-09-19T04:53:04;16.70;99.90
12015;DHT22;6066;48.138;16.402;2023-09-19T04:55:30;16.80;99.90
12015;DHT22;6066;48.138;16.402;2023-09-19T04:57:59;16.80;99.90
12015;DHT22;6066;48.138;16.402;2023-09-19T05:00:26;16.80;99.90
12015;DHT22;6066;48.138;16.402;2023-09-19T05:02:56;16.80;99.90
12015;DHT22;6066;48.138;16.402;2023-09-19T05:05:23;16.80;99.90
12015;DHT22;6066;48.138;16.402;2023-09-19T05:07:51;16.80;99.90
12015;DHT22;6066;48.138;16.402;2023-09-19T05:10:19;16.80;99.90
12015;DHT22;6066;48.138;16.402;2023-09-19T05:12:46;16.80;99.90
12015;DHT22;6066;48.138;16.402;2023-09-19T05:15:17;16.70;99.90
12015;DHT22;6066;48.138;16.402;2023-09-19T05:17:47;16.70;99.90
12015;DHT22;6066;48.138;16.402;2023-09-19T05:20:14;16.60;99.90
12015;DHT22;6066;48.138;16.402;2023-09-19T05:22:50;16.60;99.90
12015;DHT22;6066;48.138;16.402;2023-09-19T05:25:16;16.60;99.90
12015;DHT22;6066;48.138;16.402;2023-09-19T05:27:44;16.60;99.90
12015;DHT22;6066;48.138;16.402;2023-09-19T05:30:11;16.50;99.90
12015;DHT22;6066;48.138;16.402;2023-09-19T05:32:40;16.40;99.90
12015;DHT22;6066;48.138;16.402;2023-09-19T05:35:09;16.40;99.90
12015;DHT22;6066;48.138;16.402;2023-09-19T05:37:38;16.40;99.90
12015;DHT22;6066;48.138;16.402;2023-09-19T05:40:05;16.40;99.90
12015;DHT22;6066;48.138;16.402;2023-09-19T05:42:35;16.30;99.90
12015;DHT22;6066;48.138;16.402;2023-09-19T05:45:03;16.20;99.90
12015;DHT22;6066;48.138;16.402;2023-09-19T05:47:31;16.20;99.90
12015;DHT22;6066;48.138;16.402;2023-09-19T05:49:59;16.20;99.90
12015;DHT22;6066;48.138;16.402;2023-09-19T05:52:26;16.20;99.90
12015;DHT22;6066;48.138;16.402;2023-09-19T05:54:52;16.20;99.90
12015;DHT22;6066;48.138;16.402;2023-09-19T05:57:18;16.20;99.90
12015;DHT22;6066;48.138;16.402;2023-09-19T05:59:45;16.20;99.90
12015;DHT22;6066;48.138;16.402;2023-09-19T06:02:13;16.20;99.90
12015;DHT22;6066;48.138;16.402;2023-09-19T06:04:40;16.20;99.90
12015;DHT22;6066;48.138;16.402;2023-09-19T06:07:08;16.30;99.90
12015;DHT22;6066;48.138;16.402;2023-09-19T06:09:35;16.30;99.90
12015;DHT22;6066;48.138;16.402;2023-09-19T06:12:02;16.30;99.90
12015;DHT22;6066;48.138;16.402;2023-09-19T06:14:30;16.30;99.90
12015;DHT22;6066;48.138;16.402;2023-09-19T06:16:57;16.30;99.90
12015;DHT22;6066;48.138;16.402;2023-09-19T06:19:23;16.40;99.90
12015;DHT22;6066;48.138;16.402;2023-09-19T06:21:52;16.40;99.90
12015;DHT22;6066;48.138;16.402;2023-09-19T06:24:20;16.40;99.90
12015;DHT22;6066;48.138;16.402;2023-09-19T06:26:47;16.50;99.90
12015;DHT22;6066;48.138;16.402;2023-09-19T06:29:14;16.50;99.90
12015;DHT22;6066;48.138;16.402;2023-09-19T06:31:41;16.50;99.90
12015;DHT22;6066;48.138;16.402;2023-09-19T06:34:09;16.60;99.90
12015;DHT22;6066;48.138;16.402;2023-09-19T06:36:36;16.70;99.90
12015;DHT22;6066;48.138;16.402;2023-09-19T06:39:03;16.80;99.90
12015;DHT22;6066;48.138;16.402;2023-09-19T06:41:33;16.90;99.90
12015;DHT22;6066;48.138;16.402;2023-09-19T06:43:59;16.90;99.90
12015;DHT22;6066;48.138;16.402;2023-09-19T06:46:26;16.90;99.90
12015;DHT22;6066;48.138;16.402;2023-09-19T06:48:58;17.00;99.90
12015;DHT22;6066;48.138;16.402;2023-09-19T06:51:24;17.10;99.90
12015;DHT22;6066;48.138;16.402;2023-09-19T06:53:51;17.10;99.90
12015;DHT22;6066;48.138;16.402;2023-09-19T06:56:19;17.10;99.90
12015;DHT22;6066;48.138;16.402;2023-09-19T06:58:50;17.10;99.90
12015;DHT22;6066;48.138;16.402;2023-09-19T07:01:16;17.10;99.90
12015;DHT22;6066;48.138;16.402;2023-09-19T07:03:43;17.10;99.90
12015;DHT22;6066;48.138;16.402;2023-09-19T07:06:11;17.10;99.90
12015;DHT22;6066;48.138;16.402;2023-09-19T07:08:38;17.10;99.90
12015;DHT22;6066;48.138;16.402;2023-09-19T07:11:05;17.20;99.90
12015;DHT22;6066;48.138;16.402;2023-09-19T07:13:32;17.20;99.90
12015;DHT22;6066;48.138;16.402;2023-09-19T07:16:00;17.20;99.90
12015;DHT22;6066;48.138;16.402;2023-09-19T07:18:27;17.20;99.90
12015;DHT22;6066;48.138;16.402;2023-09-19T07:20:56;17.20;99.90
12015;DHT22;6066;48.138;16.402;2023-09-19T07:23:26;17.30;99.90
12015;DHT22;6066;48.138;16.402;2023-09-19T07:25:56;17.30;99.90
12015;DHT22;6066;48.138;16.402;2023-09-19T07:28:23;17.30;99.90
12015;DHT22;6066;48.138;16.402;2023-09-19T07:30:49;17.30;99.90
12015;DHT22;6066;48.138;16.402;2023-09-19T07:33:17;17.30;99.90
12015;DHT22;6066;48.138;16.402;2023-09-19T07:35:47;17.30;99.90
12015;DHT22;6066;48.138;16.402;2023-09-19T07:38:14;17.30;99.90
12015;DHT22;6066;48.138;16.402;2023-09-19T07:40:41;17.30;99.90
12015;DHT22;6066;48.138;16.402;2023-09-19T07:43:08;17.30;99.90
12015;DHT22;6066;48.138;16.402;2023-09-19T07:45:34;17.40;99.90
12015;DHT22;6066;48.138;16.402;2023-09-19T07:48:01;17.30;99.90
12015;DHT22;6066;48.138;16.402;2023-09-19T07:50:31;17.30;99.90
12015;DHT22;6066;48.138;16.402;2023-09-19T07:52:57;17.40;99.90
12015;DHT22;6066;48.138;16.402;2023-09-19T07:55:24;17.40;99.90
12015;DHT22;6066;48.138;16.402;2023-09-19T07:57:51;17.40;99.90
12015;DHT22;6066;48.138;16.402;2023-09-19T08:00:18;17.40;99.90
12015;DHT22;6066;48.138;16.402;2023-09-19T08:02:45;17.50;99.90
12015;DHT22;6066;48.138;16.402;2023-09-19T08:05:13;17.60;99.90
12015;DHT22;6066;48.138;16.402;2023-09-19T08:07:43;17.60;99.90
12015;DHT22;6066;48.138;16.402;2023-09-19T08:10:10;17.70;99.90
12015;DHT22;6066;48.138;16.402;2023-09-19T08:12:38;17.70;99.90
12015;DHT22;6066;48.138;16.402;2023-09-19T08:15:11;17.80;99.90
12015;DHT22;6066;48.138;16.402;2023-09-19T08:17:38;17.90;99.90
12015;DHT22;6066;48.138;16.402;2023-09-19T08:20:05;18.00;99.90
12015;DHT22;6066;48.138;16.402;2023-09-19T08:22:32;18.00;99.90
12015;DHT22;6066;48.138;16.402;2023-09-19T08:25:01;18.10;99.90
12015;DHT22;6066;48.138;16.402;2023-09-19T08:27:28;18.10;99.90
12015;DHT22;6066;48.138;16.402;2023-09-19T08:29:56;18.20;99.90
12015;DHT22;6066;48.138;16.402;2023-09-19T08:32:23;18.30;99.90
12015;DHT22;6066;48.138;16.402;2023-09-19T08:34:51;18.30;99.90
12015;DHT22;6066;48.138;16.402;2023-09-19T08:37:18;18.30;99.90
12015;DHT22;6066;48.138;16.402;2023-09-19T08:39:44;18.30;99.90
12015;DHT22;6066;48.138;16.402;2023-09-19T08:42:13;18.40;99.90
12015;DHT22;6066;48.138;16.402;2023-09-19T08:44:41;18.50;99.90
12015;DHT22;6066;48.138;16.402;2023-09-19T08:47:10;18.50;99.90
12015;DHT22;6066;48.138;16.402;2023-09-19T08:49:41;18.50;99.90
12015;DHT22;6066;48.138;16.402;2023-09-19T08:52:10;18.60;99.90
12015;DHT22;6066;48.138;16.402;2023-09-19T08:54:38;18.50;99.90
12015;DHT22;6066;48.138;16.402;2023-09-19T08:57:07;18.60;99.90
12015;DHT22;6066;48.138;16.402;2023-09-19T08:59:38;18.60;99.90
12015;DHT22;6066;48.138;16.402;2023-09-19T09:02:08;18.60;99.90
12015;DHT22;6066;48.138;16.402;2023-09-19T09:04:37;18.60;99.90
12015;DHT22;6066;48.138;16.402;2023-09-19T09:07:05;18.60;99.90
12015;DHT22;6066;48.138;16.402;2023-09-19T09:09:32;18.60;99.90
12015;DHT22;6066;48.138;16.402;2023-09-19T09:12:01;18.60;99.90
12015;DHT22;6066;48.138;16.402;2023-09-19T09:14:28;18.60;99.90
12015;DHT22;6066;48.138;16.402;2023-09-19T09:16:57;18.60;99.90
12015;DHT22;6066;48.138;16.402;2023-09-19T09:19:24;18.50;99.90
12015;DHT22;6066;48.138;16.402;2023-09-19T09:21:51;18.60;99.90
12015;DHT22;6066;48.138;16.402;2023-09-19T09:24:27;18.50;99.90
12015;DHT22;6066;48.138;16.402;2023-09-19T09:26:55;18.60;99.90
12015;DHT22;6066;48.138;16.402;2023-09-19T09:29:35;18.60;99.90
12015;DHT22;6066;48.138;16.402;2023-09-19T09:32:17;18.60;99.90
12015;DHT22;6066;48.138;16.402;2023-09-19T09:34:45;18.60;99.90
12015;DHT22;6066;48.138;16.402;2023-09-19T09:37:13;18.70;99.90
12015;DHT22;6066;48.138;16.402;2023-09-19T09:39:41;18.70;99.90
12015;DHT22;6066;48.138;16.402;2023-09-19T09:42:23;18.80;99.90
12015;DHT22;6066;48.138;16.402;2023-09-19T09:45:07;18.80;99.90
12015;DHT22;6066;48.138;16.402;2023-09-19T09:47:43;18.90;99.90
12015;DHT22;6066;48.138;16.402;2023-09-19T09:50:28;19.00;99.90
12015;DHT22;6066;48.138;16.402;2023-09-19T09:53:05;19.10;99.90
12015;DHT22;6066;48.138;16.402;2023-09-19T09:58:17;19.50;99.90
12015;DHT22;6066;48.138;16.402;2023-09-19T10:00:54;19.90;99.90
12015;DHT22;6066;48.138;16.402;2023-09-19T10:03:32;20.10;99.90
12015;DHT22;6066;48.138;16.402;2023-09-19T10:06:00;20.40;99.90
12015;DHT22;6066;48.138;16.402;2023-09-19T10:08:34;20.50;99.90
12015;DHT22;6066;48.138;16.402;2023-09-19T10:11:14;20.60;99.90
12015;DHT22;6066;48.138;16.402;2023-09-19T10:13:41;20.70;99.90
12015;DHT22;6066;48.138;16.402;2023-09-19T10:16:09;20.80;99.90
12015;DHT22;6066;48.138;16.402;2023-09-19T10:18:37;20.90;99.90
12015;DHT22;6066;48.138;16.402;2023-09-19T10:21:05;21.10;99.90
12015;DHT22;6066;48.138;16.402;2023-09-19T10:23:34;21.30;99.90
12015;DHT22;6066;48.138;16.402;2023-09-19T10:26:02;21.40;99.90
12015;DHT22;6066;48.138;16.402;2023-09-19T10:28:30;21.40;99.90
12015;DHT22;6066;48.138;16.402;2023-09-19T10:30:58;21.50;99.90
12015;DHT22;6066;48.138;16.402;2023-09-19T10:33:26;21.40;99.90
12015;DHT22;6066;48.138;16.402;2023-09-19T10:35:57;21.50;99.90
12015;DHT22;6066;48.138;16.402;2023-09-19T10:38:25;21.70;99.90
12015;DHT22;6066;48.138;16.402;2023-09-19T10:40:54;21.80;99.90
12015;DHT22;6066;48.138;16.402;2023-09-19T10:43:25;22.00;99.90
12015;DHT22;6066;48.138;16.402;2023-09-19T10:45:57;22.00;99.90
12015;DHT22;6066;48.138;16.402;2023-09-19T10:48:26;22.20;99.90
12015;DHT22;6066;48.138;16.402;2023-09-19T10:50:56;22.30;99.90
12015;DHT22;6066;48.138;16.402;2023-09-19T10:53:26;22.30;99.90
12015;DHT22;6066;48.138;16.402;2023-09-19T10:55:56;22.40;99.90
12015;DHT22;6066;48.138;16.402;2023-09-19T10:58:28;22.50;99.90
12015;DHT22;6066;48.138;16.402;2023-09-19T11:00:56;22.50;99.90
12015;DHT22;6066;48.138;16.402;2023-09-19T11:03:26;22.60;99.90
12015;DHT22;6066;48.138;16.402;2023-09-19T11:06:06;22.60;99.90
12015;DHT22;6066;48.138;16.402;2023-09-19T11:08:52;22.50;99.90
12015;DHT22;6066;48.138;16.402;2023-09-19T11:11:41;22.50;99.90
12015;DHT22;6066;48.138;16.402;2023-09-19T11:14:14;22.50;99.90
12015;DHT22;6066;48.138;16.402;2023-09-19T11:16:50;22.40;99.90
12015;DHT22;6066;48.138;16.402;2023-09-19T11:22:19;22.60;99.90
12015;DHT22;6066;48.138;16.402;2023-09-19T11:24:49;22.80;99.90
12015;DHT22;6066;48.138;16.402;2023-09-19T11:27:16;22.90;99.90
12015;DHT22;6066;48.138;16.402;2023-09-19T11:29:44;22.80;99.90
12015;DHT22;6066;48.138;16.402;2023-09-19T11:32:12;22.90;99.90
12015;DHT22;6066;48.138;16.402;2023-09-19T11:40:09;23.30;99.90
12015;DHT22;6066;48.138;16.402;2023-09-19T11:42:41;23.40;99.90
12015;DHT22;6066;48.138;16.402;2023-09-19T11:45:13;23.70;99.90
12015;DHT22;6066;48.138;16.402;2023-09-19T11:48:00;23.80;99.90
12015;DHT22;6066;48.138;16.402;2023-09-19T11:50:27;23.80;99.90
12015;DHT22;6066;48.138;16.402;2023-09-19T11:52:54;23.80;99.90
12015;DHT22;6066;48.138;16.402;2023-09-19T11:55:22;23.80;99.90
12015;DHT22;6066;48.138;16.402;2023-09-19T11:57:52;24.00;99.90
12015;DHT22;6066;48.138;16.402;2023-09-19T12:00:21;24.20;99.90
12015;DHT22;6066;48.138;16.402;2023-09-19T12:02:49;24.40;99.90
12015;DHT22;6066;48.138;16.402;2023-09-19T12:05:17;24.50;99.90
12015;DHT22;6066;48.138;16.402;2023-09-19T12:07:47;24.40;99.90
12015;DHT22;6066;48.138;16.402;2023-09-19T12:10:13;24.20;99.90
12015;DHT22;6066;48.138;16.402;2023-09-19T12:12:48;24.00;99.90
12015;DHT22;6066;48.138;16.402;2023-09-19T12:15:15;23.80;99.90
12015;DHT22;6066;48.138;16.402;2023-09-19T12:17:46;23.80;99.90
12015;DHT22;6066;48.138;16.402;2023-09-19T12:20:14;23.90;99.90
12015;DHT22;6066;48.138;16.402;2023-09-19T12:22:42;24.10;99.90
12015;DHT22;6066;48.138;16.402;2023-09-19T12:25:10;24.30;99.90
12015;DHT22;6066;48.138;16.402;2023-09-19T12:27:43;24.70;99.90
12015;DHT22;6066;48.138;16.402;2023-09-19T12:30:13;24.90;99.90
12015;DHT22;6066;48.138;16.402;2023-09-19T12:32:43;25.00;99.90
12015;DHT22;6066;48.138;16.402;2023-09-19T12:35:10;25.00;99.90
12015;DHT22;6066;48.138;16.402;2023-09-19T12:37:37;25.10;99.90
12015;DHT22;6066;48.138;16.402;2023-09-19T12:40:04;25.10;99.90
12015;DHT22;6066;48.138;16.402;2023-09-19T12:42:40;25.20;99.90
12015;DHT22;6066;48.138;16.402;2023-09-19T12:45:07;25.30;99.90
12015;DHT22;6066;48.138;16.402;2023-09-19T12:47:36;25.40;99.90
12015;DHT22;6066;48.138;16.402;2023-09-19T12:50:06;25.50;99.90
12015;DHT22;6066;48.138;16.402;2023-09-19T12:52:36;25.60;99.90
12015;DHT22;6066;48.138;16.402;2023-09-19T12:55:03;25.50;99.90
12015;DHT22;6066;48.138;16.402;2023-09-19T12:57:32;25.60;99.90
12015;DHT22;6066;48.138;16.402;2023-09-19T13:00:00;25.50;99.90
12015;DHT22;6066;48.138;16.402;2023-09-19T13:02:27;25.40;99.90
12015;DHT22;6066;48.138;16.402;2023-09-19T13:04:55;25.30;99.90
12015;DHT22;6066;48.138;16.402;2023-09-19T13:07:40;25.20;99.90
12015;DHT22;6066;48.138;16.402;2023-09-19T13:10:09;25.20;99.90
12015;DHT22;6066;48.138;16.402;2023-09-19T13:12:37;25.30;99.90
12015;DHT22;6066;48.138;16.402;2023-09-19T13:15:07;25.40;99.90
12015;DHT22;6066;48.138;16.402;2023-09-19T13:17:43;25.40;99.90
12015;DHT22;6066;48.138;16.402;2023-09-19T13:20:21;25.40;99.90
12015;DHT22;6066;48.138;16.402;2023-09-19T13:22:53;25.60;99.90
12015;DHT22;6066;48.138;16.402;2023-09-19T13:25:25;25.70;99.90
12015;DHT22;6066;48.138;16.402;2023-09-19T13:27:55;25.80;99.90
12015;DHT22;6066;48.138;16.402;2023-09-19T13:30:22;25.90;99.90
12015;DHT22;6066;48.138;16.402;2023-09-19T13:32:50;25.90;99.90
12015;DHT22;6066;48.138;16.402;2023-09-19T13:35:18;25.80;99.90
12015;DHT22;6066;48.138;16.402;2023-09-19T13:37:46;25.80;99.90
12015;DHT22;6066;48.138;16.402;2023-09-19T13:40:14;25.80;99.90
12015;DHT22;6066;48.138;16.402;2023-09-19T13:42:41;25.90;99.90
12015;DHT22;6066;48.138;16.402;2023-09-19T13:45:08;25.90;99.90
12015;DHT22;6066;48.138;16.402;2023-09-19T13:47:38;26.00;99.90
12015;DHT22;6066;48.138;16.402;2023-09-19T13:50:05;26.10;99.90
12015;DHT22;6066;48.138;16.402;2023-09-19T13:52:32;26.00;99.90
12015;DHT22;6066;48.138;16.402;2023-09-19T13:55:00;26.00;99.90
12015;DHT22;6066;48.138;16.402;2023-09-19T13:57:27;26.00;99.90
12015;DHT22;6066;48.138;16.402;2023-09-19T13:59:54;25.90;99.90
12015;DHT22;6066;48.138;16.402;2023-09-19T14:02:24;25.80;99.90
12015;DHT22;6066;48.138;16.402;2023-09-19T14:04:53;25.70;99.90
12015;DHT22;6066;48.138;16.402;2023-09-19T14:07:20;25.70;99.90
12015;DHT22;6066;48.138;16.402;2023-09-19T14:09:47;25.70;99.90
12015;DHT22;6066;48.138;16.402;2023-09-19T14:12:15;25.60;99.90
12015;DHT22;6066;48.138;16.402;2023-09-19T14:14:42;25.60;99.90
12015;DHT22;6066;48.138;16.402;2023-09-19T14:17:10;25.60;99.90
12015;DHT22;6066;48.138;16.402;2023-09-19T14:19:38;25.50;99.90
12015;DHT22;6066;48.138;16.402;2023-09-19T14:22:09;25.50;99.90
12015;DHT22;6066;48.138;16.402;2023-09-19T14:24:36;25.40;99.90
12015;DHT22;6066;48.138;16.402;2023-09-19T14:27:03;25.30;99.90
12015;DHT22;6066;48.138;16.402;2023-09-19T14:29:33;25.30;99.90
12015;DHT22;6066;48.138;16.402;2023-09-19T14:32:02;25.30;99.90
12015;DHT22;6066;48.138;16.402;2023-09-19T14:34:28;25.20;99.90
12015;DHT22;6066;48.138;16.402;2023-09-19T14:36:55;25.20;99.90
12015;DHT22;6066;48.138;16.402;2023-09-19T14:39:22;25.20;99.90
12015;DHT22;6066;48.138;16.402;2023-09-19T14:41:50;25.20;99.90
12015;DHT22;6066;48.138;16.402;2023-09-19T14:44:17;25.10;99.90
12015;DHT22;6066;48.138;16.402;2023-09-19T14:46:45;25.10;99.90
12015;DHT22;6066;48.138;16.402;2023-09-19T14:49:12;25.00;99.90
12015;DHT22;6066;48.138;16.402;2023-09-19T14:51:41;24.90;99.90
12015;DHT22;6066;48.138;16.402;2023-09-19T14:54:09;24.80;99.90
12015;DHT22;6066;48.138;16.402;2023-09-19T14:56:36;24.80;99.90
12015;DHT22;6066;48.138;16.402;2023-09-19T14:59:02;24.70;99.90
12015;DHT22;6066;48.138;16.402;2023-09-19T15:01:29;24.70;99.90
12015;DHT22;6066;48.138;16.402;2023-09-19T15:03:59;24.70;99.90
12015;DHT22;6066;48.138;16.402;2023-09-19T15:06:26;24.60;99.90
12015;DHT22;6066;48.138;16.402;2023-09-19T15:08:53;24.50;99.90
12015;DHT22;6066;48.138;16.402;2023-09-19T15:11:19;24.40;99.90
12015;DHT22;6066;48.138;16.402;2023-09-19T15:13:47;24.30;99.90
12015;DHT22;6066;48.138;16.402;2023-09-19T15:16:14;24.30;99.90
12015;DHT22;6066;48.138;16.402;2023-09-19T15:18:41;24.20;99.90
12015;DHT22;6066;48.138;16.402;2023-09-19T15:21:11;24.20;99.90
12015;DHT22;6066;48.138;16.402;2023-09-19T15:23:39;24.10;99.90
12015;DHT22;6066;48.138;16.402;2023-09-19T15:26:06;24.00;99.90
12015;DHT22;6066;48.138;16.402;2023-09-19T15:28:33;23.90;99.90
12015;DHT22;6066;48.138;16.402;2023-09-19T15:31:01;23.90;99.90
12015;DHT22;6066;48.138;16.402;2023-09-19T15:33:29;23.80;99.90
12015;DHT22;6066;48.138;16.402;2023-09-19T15:36:02;23.70;99.90
12015;DHT22;6066;48.138;16.402;2023-09-19T15:38:31;23.60;99.90
12015;DHT22;6066;48.138;16.402;2023-09-19T15:40:58;23.60;99.90
12015;DHT22;6066;48.138;16.402;2023-09-19T15:43:25;23.50;99.90
12015;DHT22;6066;48.138;16.402;2023-09-19T15:45:51;23.40;99.90
12015;DHT22;6066;48.138;16.402;2023-09-19T15:48:18;23.40;99.90
12015;DHT22;6066;48.138;16.402;2023-09-19T15:50:47;23.30;99.90
12015;DHT22;6066;48.138;16.402;2023-09-19T15:53:13;23.30;99.90